sensor_id;sensor_type;location;lat;lon;timestamp;temperature;humidity
12849;DHT22;6493;50.928;7.172;2024-03-02T00:03:44;3.70;59.30
12849;DHT22;6493;50.928;7.172;2024-03-02T00:08:48;3.70;59.60
12849;DHT22;6493;50.928;7.172;2024-03-02T00:13:53;3.70;59.50
12849;DHT22;6493;50.928;7.172;2024-03-02T00:19:01;3.70;59.40
12849;DHT22;6493;50.928;7.172;2024-03-02T00:24:17;3.70;59.50
12849;DHT22;6493;50.928;7.172;2024-03-02T00:29:22;3.70;59.50
12849;DHT22;6493;50.928;7.172;2024-03-02T00:34:29;3.70;59.60
12849;DHT22;6493;50.928;7.172;2024-03-02T00:39:33;3.80;58.80
12849;DHT22;6493;50.928;7.172;2024-03-02T00:44:37;3.80;58.80
12849;DHT22;6493;50.928;7.172;2024-03-02T00:49:42;3.80;58.80
12849;DHT22;6493;50.928;7.172;2024-03-02T00:54:47;3.90;58.80
12849;DHT22;6493;50.928;7.172;2024-03-02T00:59:52;3.90;58.60
12849;DHT22;6493;50.928;7.172;2024-03-02T01:04:57;3.90;58.60
12849;DHT22;6493;50.928;7.172;2024-03-02T01:10:01;3.90;58.50
12849;DHT22;6493;50.928;7.172;2024-03-02T01:15:05;4.00;58.30
12849;DHT22;6493;50.928;7.172;2024-03-02T01:20:12;4.00;58.20
12849;DHT22;6493;50.928;7.172;2024-03-02T01:25:15;4.10;58.00
12849;DHT22;6493;50.928;7.172;2024-03-02T01:30:20;4.10;58.00
12849;DHT22;6493;50.928;7.172;2024-03-02T01:35:25;4.10;57.70
12849;DHT22;6493;50.928;7.172;2024-03-02T01:40:29;4.10;57.70
12849;DHT22;6493;50.928;7.172;2024-03-02T01:45:33;4.10;57.70
12849;DHT22;6493;50.928;7.172;2024-03-02T01:50:39;4.10;57.70
12849;DHT22;6493;50.928;7.172;2024-03-02T01:55:43;4.10;57.70
12849;DHT22;6493;50.928;7.172;2024-03-02T02:00:47;4.10;57.70
12849;DHT22;6493;50.928;7.172;2024-03-02T02:05:54;4.20;57.80
12849;DHT22;6493;50.928;7.172;2024-03-02T02:10:58;4.10;57.60
12849;DHT22;6493;50.928;7.172;2024-03-02T02:16:06;4.20;57.70
12849;DHT22;6493;50.928;7.172;2024-03-02T02:21:11;4.10;57.70
12849;DHT22;6493;50.928;7.172;2024-03-02T02:26:16;4.10;57.80
12849;DHT22;6493;50.928;7.172;2024-03-02T02:31:20;4.00;57.80
12849;DHT22;6493;50.928;7.172;2024-03-02T02:36:29;4.00;57.70
12849;DHT22;6493;50.928;7.172;2024-03-02T02:41:34;4.00;57.90
12849;DHT22;6493;50.928;7.172;2024-03-02T02:46:41;3.90;57.60
12849;DHT22;6493;50.928;7.172;2024-03-02T02:51:45;3.90;57.80
12849;DHT22;6493;50.928;7.172;2024-03-02T02:56:50;3.90;57.70
12849;DHT22;6493;50.928;7.172;2024-03-02T03:01:54;3.90;57.60
12849;DHT22;6493;50.928;7.172;2024-03-02T03:06:57;3.90;57.70
12849;DHT22;6493;50.928;7.172;2024-03-02T03:12:03;3.90;58.00
12849;DHT22;6493;50.928;7.172;2024-03-02T03:17:07;3.80;57.50
12849;DHT22;6493;50.928;7.172;2024-03-02T03:22:11;3.90;57.50
12849;DHT22;6493;50.928;7.172;2024-03-02T03:27:17;3.90;57.50
12849;DHT22;6493;50.928;7.172;2024-03-02T03:32:24;3.90;58.00
12849;DHT22;6493;50.928;7.172;2024-03-02T03:37:28;3.90;57.50
12849;DHT22;6493;50.928;7.172;2024-03-02T03:42:37;4.00;57.40
12849;DHT22;6493;50.928;7.172;2024-03-02T03:47:40;4.00;57.30
12849;DHT22;6493;50.928;7.172;2024-03-02T03:52:44;4.10;57.80
12849;DHT22;6493;50.928;7.172;2024-03-02T03:57:50;4.10;57.20
12849;DHT22;6493;50.928;7.172;2024-03-02T04:02:54;4.10;57.20
12849;DHT22;6493;50.928;7.172;2024-03-02T04:07:58;4.10;57.20
12849;DHT22;6493;50.928;7.172;2024-03-02T04:13:04;4.10;57.20
12849;DHT22;6493;50.928;7.172;2024-03-02T04:18:08;4.10;57.10
12849;DHT22;6493;50.928;7.172;2024-03-02T04:23:11;4.10;57.10
12849;DHT22;6493;50.928;7.172;2024-03-02T04:28:17;4.10;57.10
12849;DHT22;6493;50.928;7.172;2024-03-02T04:33:20;4.10;57.10
12849;DHT22;6493;50.928;7.172;2024-03-02T04:38:24;4.00;57.10
12849;DHT22;6493;50.928;7.172;2024-03-02T04:43:29;3.90;57.00
12849;DHT22;6493;50.928;7.172;2024-03-02T04:48:34;3.90;57.10
12849;DHT22;6493;50.928;7.172;2024-03-02T04:53:38;3.80;57.40
12849;DHT22;6493;50.928;7.172;2024-03-02T04:58:43;3.70;58.00
12849;DHT22;6493;50.928;7.172;2024-03-02T05:03:47;3.70;58.00
12849;DHT22;6493;50.928;7.172;2024-03-02T05:08:51;3.70;58.00
12849;DHT22;6493;50.928;7.172;2024-03-02T05:13:56;3.70;58.20
12849;DHT22;6493;50.928;7.172;2024-03-02T05:19:00;3.60;58.10
12849;DHT22;6493;50.928;7.172;2024-03-02T05:24:05;3.60;58.10
12849;DHT22;6493;50.928;7.172;2024-03-02T05:29:10;3.60;58.20
12849;DHT22;6493;50.928;7.172;2024-03-02T05:34:13;3.50;58.30
12849;DHT22;6493;50.928;7.172;2024-03-02T05:39:17;3.50;58.40
12849;DHT22;6493;50.928;7.172;2024-03-02T05:44:22;3.40;58.30
12849;DHT22;6493;50.928;7.172;2024-03-02T05:49:26;3.40;58.40
12849;DHT22;6493;50.928;7.172;2024-03-02T05:54:32;3.30;58.60
12849;DHT22;6493;50.928;7.172;2024-03-02T05:59:38;3.30;58.60
12849;DHT22;6493;50.928;7.172;2024-03-02T06:04:41;3.20;58.70
12849;DHT22;6493;50.928;7.172;2024-03-02T06:09:46;3.20;59.60
12849;DHT22;6493;50.928;7.172;2024-03-02T06:14:52;3.20;59.20
12849;DHT22;6493;50.928;7.172;2024-03-02T06:19:56;3.20;59.50
12849;DHT22;6493;50.928;7.172;2024-03-02T06:24:59;3.10;59.70
12849;DHT22;6493;50.928;7.172;2024-03-02T06:30:05;3.10;59.90
12849;DHT22;6493;50.928;7.172;2024-03-02T06:35:10;3.10;60.20
12849;DHT22;6493;50.928;7.172;2024-03-02T06:40:15;3.10;60.10
12849;DHT22;6493;50.928;7.172;2024-03-02T06:45:19;3.10;60.00
12849;DHT22;6493;50.928;7.172;2024-03-02T06:50:23;3.10;60.20
12849;DHT22;6493;50.928;7.172;2024-03-02T06:55:27;3.20;60.30
12849;DHT22;6493;50.928;7.172;2024-03-02T07:00:32;3.20;60.30
12849;DHT22;6493;50.928;7.172;2024-03-02T07:05:36;3.20;60.20
12849;DHT22;6493;50.928;7.172;2024-03-02T07:10:40;3.20;60.40
12849;DHT22;6493;50.928;7.172;2024-03-02T07:15:45;3.30;60.70
12849;DHT22;6493;50.928;7.172;2024-03-02T07:21:22;3.50;60.70
12849;DHT22;6493;50.928;7.172;2024-03-02T07:26:29;3.70;60.40
12849;DHT22;6493;50.928;7.172;2024-03-02T07:31:37;3.90;59.40
12849;DHT22;6493;50.928;7.172;2024-03-02T07:36:42;4.20;59.60
12849;DHT22;6493;50.928;7.172;2024-03-02T07:41:46;4.60;59.30
12849;DHT22;6493;50.928;7.172;2024-03-02T07:46:51;4.90;58.80
12849;DHT22;6493;50.928;7.172;2024-03-02T07:51:55;5.30;59.00
12849;DHT22;6493;50.928;7.172;2024-03-02T07:56:59;5.80;58.40
12849;DHT22;6493;50.928;7.172;2024-03-02T08:02:04;6.10;57.10
12849;DHT22;6493;50.928;7.172;2024-03-02T08:07:08;6.40;56.80
12849;DHT22;6493;50.928;7.172;2024-03-02T08:12:12;6.90;56.60
12849;DHT22;6493;50.928;7.172;2024-03-02T08:17:17;7.30;56.40
12849;DHT22;6493;50.928;7.172;2024-03-02T08:22:21;7.80;57.10
12849;DHT22;6493;50.928;7.172;2024-03-02T08:27:27;8.40;56.10
12849;DHT22;6493;50.928;7.172;2024-03-02T08:32:32;8.90;55.40
12849;DHT22;6493;50.928;7.172;2024-03-02T08:37:38;9.40;54.80
12849;DHT22;6493;50.928;7.172;2024-03-02T08:42:42;9.90;54.90
12849;DHT22;6493;50.928;7.172;2024-03-02T08:47:48;10.20;52.50
12849;DHT22;6493;50.928;7.172;2024-03-02T08:52:52;10.30;52.80
12849;DHT22;6493;50.928;7.172;2024-03-02T08:57:56;10.40;51.70
12849;DHT22;6493;50.928;7.172;2024-03-02T09:03:01;10.50;51.80
12849;DHT22;6493;50.928;7.172;2024-03-02T09:08:06;10.50;50.80
12849;DHT22;6493;50.928;7.172;2024-03-02T09:13:10;10.30;51.00
12849;DHT22;6493;50.928;7.172;2024-03-02T09:18:15;10.20;50.90
12849;DHT22;6493;50.928;7.172;2024-03-02T09:23:19;10.20;49.90
12849;DHT22;6493;50.928;7.172;2024-03-02T09:28:23;10.20;50.80
12849;DHT22;6493;50.928;7.172;2024-03-02T09:33:28;10.10;50.50
12849;DHT22;6493;50.928;7.172;2024-03-02T09:38:32;10.00;50.30
12849;DHT22;6493;50.928;7.172;2024-03-02T09:43:36;10.00;50.70
12849;DHT22;6493;50.928;7.172;2024-03-02T09:48:41;9.80;50.10
12849;DHT22;6493;50.928;7.172;2024-03-02T09:53:45;9.70;50.20
12849;DHT22;6493;50.928;7.172;2024-03-02T09:58:49;9.60;49.80
12849;DHT22;6493;50.928;7.172;2024-03-02T10:03:56;9.60;51.10
12849;DHT22;6493;50.928;7.172;2024-03-02T10:09:03;9.70;50.90
12849;DHT22;6493;50.928;7.172;2024-03-02T10:14:08;9.80;50.80
12849;DHT22;6493;50.928;7.172;2024-03-02T10:19:18;9.90;49.90
12849;DHT22;6493;50.928;7.172;2024-03-02T10:24:22;9.90;49.90
12849;DHT22;6493;50.928;7.172;2024-03-02T10:29:29;9.90;49.80
12849;DHT22;6493;50.928;7.172;2024-03-02T10:34:35;9.90;49.40
12849;DHT22;6493;50.928;7.172;2024-03-02T10:39:40;9.90;49.30
12849;DHT22;6493;50.928;7.172;2024-03-02T10:44:47;10.00;49.90
12849;DHT22;6493;50.928;7.172;2024-03-02T10:49:54;10.10;49.70
12849;DHT22;6493;50.928;7.172;2024-03-02T10:55:02;10.10;48.70
12849;DHT22;6493;50.928;7.172;2024-03-02T11:00:11;10.20;49.30
12849;DHT22;6493;50.928;7.172;2024-03-02T11:05:27;10.20;48.80
12849;DHT22;6493;50.928;7.172;2024-03-02T11:10:35;10.20;48.80
12849;DHT22;6493;50.928;7.172;2024-03-02T11:15:40;10.20;48.00
12849;DHT22;6493;50.928;7.172;2024-03-02T11:20:51;10.20;48.60
12849;DHT22;6493;50.928;7.172;2024-03-02T11:26:16;10.30;48.60
12849;DHT22;6493;50.928;7.172;2024-03-02T11:31:21;10.40;48.50
12849;DHT22;6493;50.928;7.172;2024-03-02T11:36:26;10.60;48.80
12849;DHT22;6493;50.928;7.172;2024-03-02T11:41:30;10.70;47.80
12849;DHT22;6493;50.928;7.172;2024-03-02T11:46:34;10.70;47.70
12849;DHT22;6493;50.928;7.172;2024-03-02T11:51:53;10.60;47.90
12849;DHT22;6493;50.928;7.172;2024-03-02T11:57:05;10.60;48.00
12849;DHT22;6493;50.928;7.172;2024-03-02T12:02:15;10.60;48.00
12849;DHT22;6493;50.928;7.172;2024-03-02T12:07:23;10.60;48.50
12849;DHT22;6493;50.928;7.172;2024-03-02T12:12:27;10.60;48.70
12849;DHT22;6493;50.928;7.172;2024-03-02T12:17:31;10.60;48.90
12849;DHT22;6493;50.928;7.172;2024-03-02T12:22:36;10.60;48.80
12849;DHT22;6493;50.928;7.172;2024-03-02T12:27:40;10.60;47.80
12849;DHT22;6493;50.928;7.172;2024-03-02T12:32:45;10.40;48.40
12849;DHT22;6493;50.928;7.172;2024-03-02T12:37:51;10.40;48.40
12849;DHT22;6493;50.928;7.172;2024-03-02T12:42:55;10.40;48.80
12849;DHT22;6493;50.928;7.172;2024-03-02T12:48:00;10.50;48.80
12849;DHT22;6493;50.928;7.172;2024-03-02T12:53:06;10.50;48.60
12849;DHT22;6493;50.928;7.172;2024-03-02T12:58:16;10.60;48.50
12849;DHT22;6493;50.928;7.172;2024-03-02T13:03:22;10.60;48.60
12849;DHT22;6493;50.928;7.172;2024-03-02T13:08:29;10.70;48.20
12849;DHT22;6493;50.928;7.172;2024-03-02T13:13:35;10.70;47.50
12849;DHT22;6493;50.928;7.172;2024-03-02T13:18:40;10.70;47.60
12849;DHT22;6493;50.928;7.172;2024-03-02T13:23:45;10.70;47.90
12849;DHT22;6493;50.928;7.172;2024-03-02T13:28:49;10.60;47.50
12849;DHT22;6493;50.928;7.172;2024-03-02T13:33:53;10.60;47.80
12849;DHT22;6493;50.928;7.172;2024-03-02T13:38:58;10.50;47.70
12849;DHT22;6493;50.928;7.172;2024-03-02T13:44:02;10.40;48.00
12849;DHT22;6493;50.928;7.172;2024-03-02T13:49:06;10.40;48.50
12849;DHT22;6493;50.928;7.172;2024-03-02T13:54:11;10.40;48.10
12849;DHT22;6493;50.928;7.172;2024-03-02T13:59:15;10.40;48.30
12849;DHT22;6493;50.928;7.172;2024-03-02T14:04:19;10.40;48.50
12849;DHT22;6493;50.928;7.172;2024-03-02T14:09:24;10.40;48.40
12849;DHT22;6493;50.928;7.172;2024-03-02T14:14:29;10.40;48.20
12849;DHT22;6493;50.928;7.172;2024-03-02T14:19:33;10.40;48.00
12849;DHT22;6493;50.928;7.172;2024-03-02T14:24:39;10.40;48.00
12849;DHT22;6493;50.928;7.172;2024-03-02T14:29:45;10.40;48.20
12849;DHT22;6493;50.928;7.172;2024-03-02T14:34:49;10.40;47.70
12849;DHT22;6493;50.928;7.172;2024-03-02T14:39:54;10.40;48.00
12849;DHT22;6493;50.928;7.172;2024-03-02T14:44:59;10.40;48.30
12849;DHT22;6493;50.928;7.172;2024-03-02T14:50:05;10.40;48.00
12849;DHT22;6493;50.928;7.172;2024-03-02T14:55:11;10.30;47.60
12849;DHT22;6493;50.928;7.172;2024-03-02T15:00:15;10.30;47.70
12849;DHT22;6493;50.928;7.172;2024-03-02T15:05:19;10.20;47.30
12849;DHT22;6493;50.928;7.172;2024-03-02T15:10:24;10.20;47.50
12849;DHT22;6493;50.928;7.172;2024-03-02T15:15:28;10.20;47.70
12849;DHT22;6493;50.928;7.172;2024-03-02T15:20:32;10.20;47.90
12849;DHT22;6493;50.928;7.172;2024-03-02T15:25:37;10.30;47.70
12849;DHT22;6493;50.928;7.172;2024-03-02T15:30:41;10.30;47.70
12849;DHT22;6493;50.928;7.172;2024-03-02T15:35:44;10.30;47.40
12849;DHT22;6493;50.928;7.172;2024-03-02T15:40:51;10.30;47.40
12849;DHT22;6493;50.928;7.172;2024-03-02T15:45:57;10.40;47.60
12849;DHT22;6493;50.928;7.172;2024-03-02T15:51:04;10.40;46.90
12849;DHT22;6493;50.928;7.172;2024-03-02T15:56:10;10.40;46.90
12849;DHT22;6493;50.928;7.172;2024-03-02T16:01:17;10.40;47.20
12849;DHT22;6493;50.928;7.172;2024-03-02T16:06:22;10.30;46.50
12849;DHT22;6493;50.928;7.172;2024-03-02T16:11:28;10.30;46.80
12849;DHT22;6493;50.928;7.172;2024-03-02T16:16:37;10.20;46.60
12849;DHT22;6493;50.928;7.172;2024-03-02T16:21:41;10.30;46.60
12849;DHT22;6493;50.928;7.172;2024-03-02T16:26:49;10.20;46.40
12849;DHT22;6493;50.928;7.172;2024-03-02T16:31:53;10.10;46.80
12849;DHT22;6493;50.928;7.172;2024-03-02T16:37:02;10.10;46.60
12849;DHT22;6493;50.928;7.172;2024-03-02T16:42:11;10.10;46.90
12849;DHT22;6493;50.928;7.172;2024-03-02T16:47:20;10.10;46.70
12849;DHT22;6493;50.928;7.172;2024-03-02T16:52:27;10.00;46.60
12849;DHT22;6493;50.928;7.172;2024-03-02T16:57:32;10.00;46.70
12849;DHT22;6493;50.928;7.172;2024-03-02T17:02:36;9.90;47.00
12849;DHT22;6493;50.928;7.172;2024-03-02T17:07:49;9.90;46.60
12849;DHT22;6493;50.928;7.172;2024-03-02T17:12:54;9.80;46.50
12849;DHT22;6493;50.928;7.172;2024-03-02T17:18:02;9.80;47.10
12849;DHT22;6493;50.928;7.172;2024-03-02T17:23:07;9.70;46.70
12849;DHT22;6493;50.928;7.172;2024-03-02T17:28:22;9.70;47.10
12849;DHT22;6493;50.928;7.172;2024-03-02T17:33:28;9.60;47.10
12849;DHT22;6493;50.928;7.172;2024-03-02T17:38:32;9.60;47.00
12849;DHT22;6493;50.928;7.172;2024-03-02T17:43:38;9.60;47.10
12849;DHT22;6493;50.928;7.172;2024-03-02T17:48:42;9.50;47.10
12849;DHT22;6493;50.928;7.172;2024-03-02T17:53:46;9.50;47.20
12849;DHT22;6493;50.928;7.172;2024-03-02T17:58:52;9.50;47.30
12849;DHT22;6493;50.928;7.172;2024-03-02T18:03:56;9.50;47.50
12849;DHT22;6493;50.928;7.172;2024-03-02T18:09:00;9.40;47.40
12849;DHT22;6493;50.928;7.172;2024-03-02T18:14:06;9.40;47.60
12849;DHT22;6493;50.928;7.172;2024-03-02T18:19:10;9.40;47.50
12849;DHT22;6493;50.928;7.172;2024-03-02T18:24:14;9.30;47.40
12849;DHT22;6493;50.928;7.172;2024-03-02T18:29:21;9.30;47.60
12849;DHT22;6493;50.928;7.172;2024-03-02T18:34:25;9.40;47.60
12849;DHT22;6493;50.928;7.172;2024-03-02T18:39:28;9.30;47.70
12849;DHT22;6493;50.928;7.172;2024-03-02T18:44:33;9.30;47.80
12849;DHT22;6493;50.928;7.172;2024-03-02T18:49:42;9.30;47.80
12849;DHT22;6493;50.928;7.172;2024-03-02T18:54:47;9.30;48.00
12849;DHT22;6493;50.928;7.172;2024-03-02T18:59:52;9.20;48.00
12849;DHT22;6493;50.928;7.172;2024-03-02T19:04:55;9.20;48.10
12849;DHT22;6493;50.928;7.172;2024-03-02T19:09:59;9.20;48.20
12849;DHT22;6493;50.928;7.172;2024-03-02T19:15:09;9.10;48.30
12849;DHT22;6493;50.928;7.172;2024-03-02T19:20:14;9.10;48.30
12849;DHT22;6493;50.928;7.172;2024-03-02T19:25:18;9.10;48.40
12849;DHT22;6493;50.928;7.172;2024-03-02T19:30:24;9.10;48.40
12849;DHT22;6493;50.928;7.172;2024-03-02T19:35:30;9.00;48.50
12849;DHT22;6493;50.928;7.172;2024-03-02T19:40:34;9.00;48.50
12849;DHT22;6493;50.928;7.172;2024-03-02T19:45:39;9.00;48.70
12849;DHT22;6493;50.928;7.172;2024-03-02T19:50:43;8.90;48.70
12849;DHT22;6493;50.928;7.172;2024-03-02T19:55:47;8.90;48.90
12849;DHT22;6493;50.928;7.172;2024-03-02T20:00:52;8.80;48.90
12849;DHT22;6493;50.928;7.172;2024-03-02T20:05:57;8.80;48.90
12849;DHT22;6493;50.928;7.172;2024-03-02T20:11:02;8.80;49.10
12849;DHT22;6493;50.928;7.172;2024-03-02T20:16:08;8.80;49.30
12849;DHT22;6493;50.928;7.172;2024-03-02T20:21:12;8.80;49.30
12849;DHT22;6493;50.928;7.172;2024-03-02T20:26:16;8.70;49.30
12849;DHT22;6493;50.928;7.172;2024-03-02T20:31:24;8.70;49.30
12849;DHT22;6493;50.928;7.172;2024-03-02T20:36:28;8.80;49.50
12849;DHT22;6493;50.928;7.172;2024-03-02T20:41:32;8.70;49.40
12849;DHT22;6493;50.928;7.172;2024-03-02T20:46:37;8.70;49.70
12849;DHT22;6493;50.928;7.172;2024-03-02T20:51:41;8.60;49.80
12849;DHT22;6493;50.928;7.172;2024-03-02T20:56:45;8.60;49.80
12849;DHT22;6493;50.928;7.172;2024-03-02T21:01:50;8.50;50.20
12849;DHT22;6493;50.928;7.172;2024-03-02T21:06:54;8.50;50.10
12849;DHT22;6493;50.928;7.172;2024-03-02T21:11:58;8.40;50.40
12849;DHT22;6493;50.928;7.172;2024-03-02T21:17:03;8.40;51.00
12849;DHT22;6493;50.928;7.172;2024-03-02T21:22:07;8.40;50.90
12849;DHT22;6493;50.928;7.172;2024-03-02T21:27:11;8.30;51.00
12849;DHT22;6493;50.928;7.172;2024-03-02T21:32:19;8.30;51.30
12849;DHT22;6493;50.928;7.172;2024-03-02T21:37:22;8.20;51.30
12849;DHT22;6493;50.928;7.172;2024-03-02T21:42:26;8.10;51.60
12849;DHT22;6493;50.928;7.172;2024-03-02T21:47:32;8.20;51.70
12849;DHT22;6493;50.928;7.172;2024-03-02T21:52:35;8.10;52.70
12849;DHT22;6493;50.928;7.172;2024-03-02T21:57:39;8.10;52.60
12849;DHT22;6493;50.928;7.172;2024-03-02T22:02:45;8.10;52.80
12849;DHT22;6493;50.928;7.172;2024-03-02T22:07:48;8.10;53.00
12849;DHT22;6493;50.928;7.172;2024-03-02T22:12:52;8.10;53.00
12849;DHT22;6493;50.928;7.172;2024-03-02T22:17:58;8.10;53.20
12849;DHT22;6493;50.928;7.172;2024-03-02T22:23:05;8.00;53.40
12849;DHT22;6493;50.928;7.172;2024-03-02T22:28:09;8.10;53.60
12849;DHT22;6493;50.928;7.172;2024-03-02T22:33:14;8.00;53.00
12849;DHT22;6493;50.928;7.172;2024-03-02T22:38:19;8.00;53.30
12849;DHT22;6493;50.928;7.172;2024-03-02T22:43:23;8.10;53.20
12849;DHT22;6493;50.928;7.172;2024-03-02T22:48:29;8.10;53.00
12849;DHT22;6493;50.928;7.172;2024-03-02T22:53:33;8.00;53.00
12849;DHT22;6493;50.928;7.172;2024-03-02T22:58:38;8.00;53.20
12849;DHT22;6493;50.928;7.172;2024-03-02T23:03:43;8.00;53.40
12849;DHT22;6493;50.928;7.172;2024-03-02T23:08:47;8.00;53.30
12849;DHT22;6493;50.928;7.172;2024-03-02T23:13:51;8.00;53.30
12849;DHT22;6493;50.928;7.172;2024-03-02T23:18:56;8.00;53.40
12849;DHT22;6493;50.928;7.172;2024-03-02T23:24:00;7.90;53.50
12849;DHT22;6493;50.928;7.172;2024-03-02T23:29:04;7.90;53.50
12849;DHT22;6493;50.928;7.172;2024-03-02T23:34:09;7.90;53.40
12849;DHT22;6493;50.928;7.172;2024-03-02T23:39:14;7.90;53.60
12849;DHT22;6493;50.928;7.172;2024-03-02T23:44:39;7.80;53.60
12849;DHT22;6493;50.928;7.172;2024-03-02T23:49:44;7.80;53.60
12849;DHT22;6493;50.928;7.172;2024-03-02T23:54:48;7.80;53.80
12849;DHT22;6493;50.928;7.172;2024-03-02T23:59:53;7.70;53.80
